sensor_id;sensor_type;location;lat;lon;timestamp;pressure;altitude;pressure_sealevel;temperature;humidity
70921;BME280;58572;48.110;19.838;2022-10-16T00:01:18;98231.41;;;10.61;79.01
70921;BME280;58572;48.110;19.838;2022-10-16T00:03:47;98285.69;;;11.12;78.46
70921;BME280;58572;48.110;19.838;2022-10-16T00:06:16;98294.94;;;11.11;78.02
70921;BME280;58572;48.110;19.838;2022-10-16T00:08:43;98305.28;;;11.14;78.65
70921;BME280;58572;48.110;19.838;2022-10-16T00:11:11;98289.44;;;11.31;77.47
70921;BME280;58572;48.110;19.838;2022-10-16T00:13:41;98290.84;;;11.18;78.09
70921;BME280;58572;48.110;19.838;2022-10-16T00:16:09;98290.56;;;11.15;78.31
70921;BME280;58572;48.110;19.838;2022-10-16T00:18:37;98291.91;;;11.23;78.06
70921;BME280;58572;48.110;19.838;2022-10-16T00:21:05;98283.94;;;11.46;77.15
70921;BME280;58572;48.110;19.838;2022-10-16T00:23:33;98286.13;;;11.49;77.04
70921;BME280;58572;48.110;19.838;2022-10-16T00:26:03;98224.19;;;11.11;76.16
70921;BME280;58572;48.110;19.838;2022-10-16T00:28:31;98287.22;;;11.38;78.03
70921;BME280;58572;48.110;19.838;2022-10-16T00:31:03;98290.94;;;11.63;76.46
70921;BME280;58572;48.110;19.838;2022-10-16T00:33:31;98300.00;;;11.48;77.79
70921;BME280;58572;48.110;19.838;2022-10-16T00:35:58;98292.28;;;11.70;75.84
70921;BME280;58572;48.110;19.838;2022-10-16T00:38:26;98286.38;;;11.53;77.49
70921;BME280;58572;48.110;19.838;2022-10-16T00:40:53;98261.09;;;11.37;77.83
70921;BME280;58572;48.110;19.838;2022-10-16T00:43:36;98288.75;;;11.65;76.78
70921;BME280;58572;48.110;19.838;2022-10-16T00:46:11;98289.56;;;11.70;77.74
70921;BME280;58572;48.110;19.838;2022-10-16T00:48:40;98244.50;;;11.34;77.90
70921;BME280;58572;48.110;19.838;2022-10-16T00:51:07;98285.44;;;11.73;76.87
70921;BME280;58572;48.110;19.838;2022-10-16T00:53:35;98298.28;;;11.67;77.91
70921;BME280;58572;48.110;19.838;2022-10-16T00:56:03;98297.41;;;11.77;76.10
70921;BME280;58572;48.110;19.838;2022-10-16T00:58:31;98311.09;;;11.62;78.23
70921;BME280;58572;48.110;19.838;2022-10-16T01:00:58;98301.56;;;11.64;76.78
70921;BME280;58572;48.110;19.838;2022-10-16T01:03:29;98303.47;;;11.64;76.74
70921;BME280;58572;48.110;19.838;2022-10-16T01:06:09;98307.03;;;11.59;76.50
70921;BME280;58572;48.110;19.838;2022-10-16T01:08:50;98302.91;;;11.67;76.88
70921;BME280;58572;48.110;19.838;2022-10-16T01:11:22;98306.16;;;11.69;77.42
70921;BME280;58572;48.110;19.838;2022-10-16T01:13:57;98310.00;;;11.68;77.46
70921;BME280;58572;48.110;19.838;2022-10-16T01:16:30;98252.41;;;11.35;77.36
70921;BME280;58572;48.110;19.838;2022-10-16T01:19:01;98306.69;;;11.81;76.25
70921;BME280;58572;48.110;19.838;2022-10-16T01:21:36;98300.16;;;11.72;77.06
70921;BME280;58572;48.110;19.838;2022-10-16T01:24:11;98307.69;;;11.95;77.03
70921;BME280;58572;48.110;19.838;2022-10-16T01:29:45;98313.66;;;11.97;75.31
70921;BME280;58572;48.110;19.838;2022-10-16T01:32:18;98293.25;;;11.95;74.61
70921;BME280;58572;48.110;19.838;2022-10-16T01:34:50;98314.59;;;12.22;74.20
70921;BME280;58572;48.110;19.838;2022-10-16T01:37:33;98321.13;;;12.26;75.12
70921;BME280;58572;48.110;19.838;2022-10-16T01:40:06;98322.09;;;12.40;74.54
70921;BME280;58572;48.110;19.838;2022-10-16T01:42:37;98284.91;;;11.71;75.72
70921;BME280;58572;48.110;19.838;2022-10-16T01:45:09;98325.06;;;12.04;75.06
70921;BME280;58572;48.110;19.838;2022-10-16T01:47:39;98330.69;;;11.69;76.44
70921;BME280;58572;48.110;19.838;2022-10-16T01:50:06;98333.88;;;11.91;76.55
70921;BME280;58572;48.110;19.838;2022-10-16T01:52:37;98335.84;;;11.80;76.26
70921;BME280;58572;48.110;19.838;2022-10-16T01:55:07;98338.84;;;11.79;77.04
70921;BME280;58572;48.110;19.838;2022-10-16T01:57:38;98338.84;;;11.79;76.23
70921;BME280;58572;48.110;19.838;2022-10-16T02:00:11;98335.84;;;11.80;76.04
70921;BME280;58572;48.110;19.838;2022-10-16T02:02:41;98346.78;;;11.60;76.95
70921;BME280;58572;48.110;19.838;2022-10-16T02:05:14;98335.38;;;11.53;76.82
70921;BME280;58572;48.110;19.838;2022-10-16T02:07:42;98340.81;;;11.53;77.26
70921;BME280;58572;48.110;19.838;2022-10-16T02:10:10;98332.28;;;11.75;75.67
70921;BME280;58572;48.110;19.838;2022-10-16T02:12:43;98341.09;;;11.57;75.97
70921;BME280;58572;48.110;19.838;2022-10-16T02:15:13;98235.41;;;10.94;75.01
70921;BME280;58572;48.110;19.838;2022-10-16T02:17:41;98339.97;;;11.63;74.81
70921;BME280;58572;48.110;19.838;2022-10-16T02:20:09;98343.22;;;11.65;75.96
70921;BME280;58572;48.110;19.838;2022-10-16T02:22:39;98349.75;;;11.69;76.20
70921;BME280;58572;48.110;19.838;2022-10-16T02:25:10;98338.56;;;11.70;76.80
70921;BME280;58572;48.110;19.838;2022-10-16T02:27:49;98319.88;;;11.48;76.26
70921;BME280;58572;48.110;19.838;2022-10-16T02:30:24;98343.22;;;11.70;75.04
70921;BME280;58572;48.110;19.838;2022-10-16T02:32:55;98342.38;;;11.74;74.67
70921;BME280;58572;48.110;19.838;2022-10-16T02:35:24;98142.81;;;10.40;75.60
70921;BME280;58572;48.110;19.838;2022-10-16T02:37:52;98340.75;;;11.73;74.05
70921;BME280;58572;48.110;19.838;2022-10-16T02:40:20;98339.97;;;11.63;76.21
70921;BME280;58572;48.110;19.838;2022-10-16T02:42:50;98342.72;;;11.58;75.61
70921;BME280;58572;48.110;19.838;2022-10-16T02:45:18;98353.56;;;11.68;75.97
70921;BME280;58572;48.110;19.838;2022-10-16T02:47:47;98344.03;;;11.70;75.40
70921;BME280;58572;48.110;19.838;2022-10-16T02:50:15;98351.13;;;11.66;75.61
70921;BME280;58572;48.110;19.838;2022-10-16T02:52:42;98349.75;;;11.69;73.90
70921;BME280;58572;48.110;19.838;2022-10-16T02:55:09;98351.34;;;11.85;75.43
70921;BME280;58572;48.110;19.838;2022-10-16T02:57:36;98348.69;;;11.65;74.75
70921;BME280;58572;48.110;19.838;2022-10-16T03:00:06;98356.84;;;11.65;74.83
70921;BME280;58572;48.110;19.838;2022-10-16T03:02:34;98363.13;;;11.60;74.62
70921;BME280;58572;48.110;19.838;2022-10-16T03:05:02;98350.91;;;11.52;74.76
70921;BME280;58572;48.110;19.838;2022-10-16T03:07:30;98347.66;;;11.40;75.79
70921;BME280;58572;48.110;19.838;2022-10-16T03:09:57;98349.22;;;11.62;75.15
70921;BME280;58572;48.110;19.838;2022-10-16T03:12:25;98348.63;;;11.85;75.16
70921;BME280;58572;48.110;19.838;2022-10-16T03:14:52;98355.63;;;11.96;74.74
70921;BME280;58572;48.110;19.838;2022-10-16T03:17:19;98353.44;;;11.98;74.05
70921;BME280;58572;48.110;19.838;2022-10-16T03:19:46;98284.50;;;11.38;75.47
70921;BME280;58572;48.110;19.838;2022-10-16T03:22:15;98301.78;;;10.98;76.17
70921;BME280;58572;48.110;19.838;2022-10-16T03:24:42;98360.28;;;10.70;77.02
70921;BME280;58572;48.110;19.838;2022-10-16T03:27:09;98367.56;;;10.24;79.74
70921;BME280;58572;48.110;19.838;2022-10-16T03:29:36;98364.91;;;10.60;79.23
70921;BME280;58572;48.110;19.838;2022-10-16T03:32:03;98371.13;;;10.35;78.14
70921;BME280;58572;48.110;19.838;2022-10-16T03:34:30;98375.13;;;10.12;78.46
70921;BME280;58572;48.110;19.838;2022-10-16T03:36:57;98375.94;;;10.17;78.52
70921;BME280;58572;48.110;19.838;2022-10-16T03:39:27;98379.25;;;10.30;77.99
70921;BME280;58572;48.110;19.838;2022-10-16T03:41:54;98382.19;;;10.13;78.52
70921;BME280;58572;48.110;19.838;2022-10-16T03:44:21;98377.59;;;10.18;78.11
70921;BME280;58572;48.110;19.838;2022-10-16T03:46:48;98379.75;;;10.11;78.89
70921;BME280;58572;48.110;19.838;2022-10-16T03:49:15;98377.69;;;10.44;79.31
70921;BME280;58572;48.110;19.838;2022-10-16T03:51:42;98377.97;;;10.47;77.90
70921;BME280;58572;48.110;19.838;2022-10-16T03:54:10;98384.06;;;9.97;79.87
70921;BME280;58572;48.110;19.838;2022-10-16T03:56:38;98382.19;;;10.08;79.36
70921;BME280;58572;48.110;19.838;2022-10-16T03:59:05;98388.69;;;10.02;79.54
70921;BME280;58572;48.110;19.838;2022-10-16T04:01:33;98397.34;;;9.93;78.83
70921;BME280;58572;48.110;19.838;2022-10-16T04:04:00;98396.53;;;9.98;78.68
70921;BME280;58572;48.110;19.838;2022-10-16T04:06:27;98238.56;;;9.23;78.38
70921;BME280;58572;48.110;19.838;2022-10-16T04:08:54;98400.00;;;10.81;77.34
70921;BME280;58572;48.110;19.838;2022-10-16T04:11:21;98401.63;;;10.93;77.61
70921;BME280;58572;48.110;19.838;2022-10-16T04:13:50;98394.00;;;10.95;77.37
70921;BME280;58572;48.110;19.838;2022-10-16T04:16:17;98410.31;;;10.54;78.24
70921;BME280;58572;48.110;19.838;2022-10-16T04:18:44;98403.78;;;10.65;78.31
70921;BME280;58572;48.110;19.838;2022-10-16T04:21:12;98411.41;;;10.53;78.52
70921;BME280;58572;48.110;19.838;2022-10-16T04:23:39;98411.41;;;10.78;77.43
70921;BME280;58572;48.110;19.838;2022-10-16T04:26:06;98409.25;;;10.70;77.24
70921;BME280;58572;48.110;19.838;2022-10-16T04:28:33;98414.13;;;10.73;76.75
70921;BME280;58572;48.110;19.838;2022-10-16T04:31:03;98273.22;;;9.94;77.40
70921;BME280;58572;48.110;19.838;2022-10-16T04:33:30;98408.69;;;10.83;77.25
70921;BME280;58572;48.110;19.838;2022-10-16T04:35:58;98416.03;;;10.93;77.73
70921;BME280;58572;48.110;19.838;2022-10-16T04:38:25;98422.84;;;10.85;76.83
70921;BME280;58572;48.110;19.838;2022-10-16T04:40:52;98412.75;;;9.78;78.17
70921;BME280;58572;48.110;19.838;2022-10-16T04:43:20;98412.19;;;9.71;78.74
70921;BME280;58572;48.110;19.838;2022-10-16T04:45:47;98411.94;;;9.72;79.06
70921;BME280;58572;48.110;19.838;2022-10-16T04:48:17;98413.06;;;9.81;78.57
70921;BME280;58572;48.110;19.838;2022-10-16T04:50:44;98415.50;;;9.83;78.79
70921;BME280;58572;48.110;19.838;2022-10-16T04:53:11;98297.03;;;9.56;78.63
70921;BME280;58572;48.110;19.838;2022-10-16T04:55:38;98413.41;;;10.05;77.70
70921;BME280;58572;48.110;19.838;2022-10-16T04:58:05;98412.53;;;9.84;79.13
70921;BME280;58572;48.110;19.838;2022-10-16T05:00:32;98386.06;;;9.54;80.00
70921;BME280;58572;48.110;19.838;2022-10-16T05:02:59;98415.75;;;9.76;80.75
70921;BME280;58572;48.110;19.838;2022-10-16T05:05:28;98420.34;;;9.76;79.94
70921;BME280;58572;48.110;19.838;2022-10-16T05:07:55;98418.84;;;10.05;78.86
70921;BME280;58572;48.110;19.838;2022-10-16T05:10:22;98417.91;;;10.42;77.62
70921;BME280;58572;48.110;19.838;2022-10-16T05:12:49;98427.72;;;10.58;76.67
70921;BME280;58572;48.110;19.838;2022-10-16T05:15:17;98435.31;;;10.56;77.50
70921;BME280;58572;48.110;19.838;2022-10-16T05:17:44;98436.88;;;10.27;77.87
70921;BME280;58572;48.110;19.838;2022-10-16T05:20:11;98431.31;;;10.01;79.30
70921;BME280;58572;48.110;19.838;2022-10-16T05:22:40;98442.28;;;10.21;78.94
70921;BME280;58572;48.110;19.838;2022-10-16T05:25:07;98445.81;;;10.22;77.80
70921;BME280;58572;48.110;19.838;2022-10-16T05:27:34;98447.66;;;10.16;78.49
70921;BME280;58572;48.110;19.838;2022-10-16T05:30:02;98439.03;;;10.24;78.62
70921;BME280;58572;48.110;19.838;2022-10-16T05:32:30;98451.44;;;10.05;78.86
70921;BME280;58572;48.110;19.838;2022-10-16T05:34:57;98450.88;;;9.98;78.43
70921;BME280;58572;48.110;19.838;2022-10-16T05:37:24;98454.66;;;9.97;78.81
70921;BME280;58572;48.110;19.838;2022-10-16T05:39:53;98456.31;;;9.98;79.53
70921;BME280;58572;48.110;19.838;2022-10-16T05:42:20;98430.38;;;9.70;79.07
70921;BME280;58572;48.110;19.838;2022-10-16T05:44:47;98461.25;;;10.11;79.26
70921;BME280;58572;48.110;19.838;2022-10-16T05:47:14;98463.50;;;10.30;77.60
70921;BME280;58572;48.110;19.838;2022-10-16T05:49:42;98465.66;;;10.28;78.51
70921;BME280;58572;48.110;19.838;2022-10-16T05:52:09;98461.81;;;10.18;78.62
70921;BME280;58572;48.110;19.838;2022-10-16T05:54:36;98461.00;;;10.18;78.57
70921;BME280;58572;48.110;19.838;2022-10-16T05:57:05;98463.50;;;10.30;78.44
70921;BME280;58572;48.110;19.838;2022-10-16T05:59:32;98460.31;;;10.48;78.11
70921;BME280;58572;48.110;19.838;2022-10-16T06:01:59;98376.91;;;9.76;78.40
70921;BME280;58572;48.110;19.838;2022-10-16T06:04:26;98478.22;;;10.39;78.52
70921;BME280;58572;48.110;19.838;2022-10-16T06:06:53;98245.28;;;9.11;77.57
70921;BME280;58572;48.110;19.838;2022-10-16T06:09:20;98479.91;;;10.50;77.90
70921;BME280;58572;48.110;19.838;2022-10-16T06:11:47;98488.97;;;10.18;80.54
70921;BME280;58572;48.110;19.838;2022-10-16T06:14:16;98489.72;;;10.66;78.94
70921;BME280;58572;48.110;19.838;2022-10-16T06:16:43;98503.31;;;10.71;77.92
70921;BME280;58572;48.110;19.838;2022-10-16T06:19:11;98488.09;;;10.70;77.28
70921;BME280;58572;48.110;19.838;2022-10-16T06:21:38;98403.56;;;9.89;78.10
70921;BME280;58572;48.110;19.838;2022-10-16T06:24:05;98502.38;;;10.35;78.93
70921;BME280;58572;48.110;19.838;2022-10-16T06:26:32;98502.63;;;10.23;78.75
70921;BME280;58572;48.110;19.838;2022-10-16T06:28:59;98445.53;;;9.61;80.05
70921;BME280;58572;48.110;19.838;2022-10-16T06:31:29;98504.72;;;10.16;79.99
70921;BME280;58572;48.110;19.838;2022-10-16T06:33:59;98512.00;;;10.06;80.35
70921;BME280;58572;48.110;19.838;2022-10-16T06:36:27;98512.25;;;9.99;81.17
70921;BME280;58572;48.110;19.838;2022-10-16T06:38:55;98482.41;;;10.04;79.79
70921;BME280;58572;48.110;19.838;2022-10-16T06:41:22;98516.09;;;10.08;82.24
70921;BME280;58572;48.110;19.838;2022-10-16T06:43:50;98517.13;;;10.49;76.90
70921;BME280;58572;48.110;19.838;2022-10-16T06:46:19;98273.00;;;9.18;77.63
70921;BME280;58572;48.110;19.838;2022-10-16T06:48:48;98517.41;;;10.53;78.85
70921;BME280;58572;48.110;19.838;2022-10-16T06:51:16;98368.97;;;9.54;78.18
70921;BME280;58572;48.110;19.838;2022-10-16T06:53:45;98526.41;;;10.59;77.19
70921;BME280;58572;48.110;19.838;2022-10-16T06:56:16;98442.22;;;10.06;78.26
70921;BME280;58572;48.110;19.838;2022-10-16T06:58:43;98538.69;;;10.76;75.78
70921;BME280;58572;48.110;19.838;2022-10-16T07:01:11;98537.91;;;10.96;74.42
70921;BME280;58572;48.110;19.838;2022-10-16T07:03:39;98545.78;;;10.93;75.90
70921;BME280;58572;48.110;19.838;2022-10-16T07:06:10;98556.66;;;10.87;76.68
70921;BME280;58572;48.110;19.838;2022-10-16T07:08:39;98552.59;;;10.85;77.41
70921;BME280;58572;48.110;19.838;2022-10-16T07:11:09;98558.31;;;10.88;76.17
70921;BME280;58572;48.110;19.838;2022-10-16T07:13:37;98558.03;;;10.95;75.23
70921;BME280;58572;48.110;19.838;2022-10-16T07:16:05;98547.16;;;11.00;75.18
70921;BME280;58572;48.110;19.838;2022-10-16T07:18:34;98543.66;;;11.10;75.80
70921;BME280;58572;48.110;19.838;2022-10-16T07:21:05;98548.81;;;11.16;76.14
70921;BME280;58572;48.110;19.838;2022-10-16T07:23:34;98548.56;;;11.23;75.44
70921;BME280;58572;48.110;19.838;2022-10-16T07:26:02;98552.31;;;10.92;77.91
70921;BME280;58572;48.110;19.838;2022-10-16T07:28:29;98548.81;;;11.01;76.65
70921;BME280;58572;48.110;19.838;2022-10-16T07:30:59;98554.78;;;11.03;76.69
70921;BME280;58572;48.110;19.838;2022-10-16T07:33:27;98566.47;;;10.94;77.68
70921;BME280;58572;48.110;19.838;2022-10-16T07:35:54;98568.66;;;11.02;76.75
70921;BME280;58572;48.110;19.838;2022-10-16T07:38:22;98571.13;;;11.03;78.06
70921;BME280;58572;48.110;19.838;2022-10-16T07:40:57;98577.41;;;11.29;77.14
70921;BME280;58572;48.110;19.838;2022-10-16T07:43:25;98530.03;;;11.05;75.73
70921;BME280;58572;48.110;19.838;2022-10-16T07:45:53;98492.97;;;10.53;77.27
70921;BME280;58572;48.110;19.838;2022-10-16T07:48:21;98583.41;;;11.31;76.24
70921;BME280;58572;48.110;19.838;2022-10-16T07:50:48;98591.56;;;11.26;76.92
70921;BME280;58572;48.110;19.838;2022-10-16T07:53:16;98527.84;;;10.97;77.21
70921;BME280;58572;48.110;19.838;2022-10-16T07:55:43;98602.78;;;11.50;76.37
70921;BME280;58572;48.110;19.838;2022-10-16T07:58:12;98590.78;;;11.61;75.64
70921;BME280;58572;48.110;19.838;2022-10-16T08:00:39;98595.41;;;11.71;76.85
70921;BME280;58572;48.110;19.838;2022-10-16T08:03:07;98610.16;;;11.85;75.46
70921;BME280;58572;48.110;19.838;2022-10-16T08:05:34;98595.94;;;12.03;74.83
70921;BME280;58572;48.110;19.838;2022-10-16T08:08:02;98603.03;;;12.04;75.48
70921;BME280;58572;48.110;19.838;2022-10-16T08:10:29;98606.81;;;12.24;75.62
70921;BME280;58572;48.110;19.838;2022-10-16T08:12:57;98610.03;;;12.41;74.41
70921;BME280;58572;48.110;19.838;2022-10-16T08:15:26;98605.13;;;12.53;73.77
70921;BME280;58572;48.110;19.838;2022-10-16T08:17:57;98496.13;;;12.23;69.27
70921;BME280;58572;48.110;19.838;2022-10-16T08:20:25;98611.03;;;13.69;62.04
70921;BME280;58572;48.110;19.838;2022-10-16T08:22:52;98617.28;;;14.03;62.75
70921;BME280;58572;48.110;19.838;2022-10-16T08:25:20;98623.06;;;13.68;68.12
70921;BME280;58572;48.110;19.838;2022-10-16T08:27:47;98621.00;;;13.50;66.25
70921;BME280;58572;48.110;19.838;2022-10-16T08:30:14;98618.09;;;14.86;62.46
70921;BME280;58572;48.110;19.838;2022-10-16T08:32:43;98624.50;;;15.38;62.88
70921;BME280;58572;48.110;19.838;2022-10-16T08:35:10;98628.97;;;16.04;61.35
70921;BME280;58572;48.110;19.838;2022-10-16T08:37:37;98623.25;;;17.29;55.42
70921;BME280;58572;48.110;19.838;2022-10-16T08:40:07;98626.41;;;16.40;54.41
70921;BME280;58572;48.110;19.838;2022-10-16T08:42:50;98626.28;;;15.28;57.32
70921;BME280;58572;48.110;19.838;2022-10-16T08:45:33;98622.50;;;15.43;57.70
70921;BME280;58572;48.110;19.838;2022-10-16T08:48:11;98628.19;;;15.47;59.00
70921;BME280;58572;48.110;19.838;2022-10-16T08:50:42;98632.41;;;16.55;56.91
70921;BME280;58572;48.110;19.838;2022-10-16T08:53:11;98618.22;;;17.08;55.44
70921;BME280;58572;48.110;19.838;2022-10-16T08:55:43;98613.72;;;16.57;58.17
70921;BME280;58572;48.110;19.838;2022-10-16T08:58:12;98627.75;;;15.40;60.76
70921;BME280;58572;48.110;19.838;2022-10-16T09:00:42;98637.00;;;15.44;62.18
70921;BME280;58572;48.110;19.838;2022-10-16T09:03:17;98631.63;;;15.76;60.36
70921;BME280;58572;48.110;19.838;2022-10-16T09:05:54;98633.31;;;15.91;60.67
70921;BME280;58572;48.110;19.838;2022-10-16T09:08:31;98529.97;;;15.54;58.75
70921;BME280;58572;48.110;19.838;2022-10-16T09:11:07;98627.59;;;16.20;57.50
70921;BME280;58572;48.110;19.838;2022-10-16T09:13:43;98621.13;;;16.43;59.16
70921;BME280;58572;48.110;19.838;2022-10-16T09:16:19;98622.13;;;16.34;56.13
70921;BME280;58572;48.110;19.838;2022-10-16T09:18:56;98622.28;;;15.77;57.26
70921;BME280;58572;48.110;19.838;2022-10-16T09:21:26;98617.34;;;16.39;57.37
70921;BME280;58572;48.110;19.838;2022-10-16T09:23:59;98622.41;;;16.18;57.88
70921;BME280;58572;48.110;19.838;2022-10-16T09:26:27;98620.63;;;16.41;59.70
70921;BME280;58572;48.110;19.838;2022-10-16T09:28:54;98574.75;;;15.30;61.32
70921;BME280;58572;48.110;19.838;2022-10-16T09:31:22;98628.16;;;15.71;62.09
70921;BME280;58572;48.110;19.838;2022-10-16T09:33:54;98634.00;;;16.29;61.43
70921;BME280;58572;48.110;19.838;2022-10-16T09:36:23;98636.69;;;16.48;59.33
70921;BME280;58572;48.110;19.838;2022-10-16T09:39:02;98556.53;;;15.91;60.41
70921;BME280;58572;48.110;19.838;2022-10-16T09:41:30;98643.78;;;16.35;59.73
70921;BME280;58572;48.110;19.838;2022-10-16T09:44:00;98626.06;;;16.14;59.70
70921;BME280;58572;48.110;19.838;2022-10-16T09:46:30;98642.75;;;18.13;56.43
70921;BME280;58572;48.110;19.838;2022-10-16T09:49:01;98648.63;;;16.24;56.18
70921;BME280;58572;48.110;19.838;2022-10-16T09:51:30;98662.56;;;16.28;57.87
70921;BME280;58572;48.110;19.838;2022-10-16T09:53:59;98659.72;;;16.93;56.92
70921;BME280;58572;48.110;19.838;2022-10-16T09:56:28;98670.84;;;16.55;56.66
70921;BME280;58572;48.110;19.838;2022-10-16T09:58:59;98595.19;;;16.49;57.62
70921;BME280;58572;48.110;19.838;2022-10-16T10:01:30;98675.69;;;16.31;56.15
70921;BME280;58572;48.110;19.838;2022-10-16T10:04:00;98678.22;;;15.95;55.07
70921;BME280;58572;48.110;19.838;2022-10-16T10:06:31;98676.53;;;16.45;53.92
70921;BME280;58572;48.110;19.838;2022-10-16T10:09:06;98676.34;;;16.55;54.36
70921;BME280;58572;48.110;19.838;2022-10-16T10:11:49;98680.38;;;16.44;58.16
70921;BME280;58572;48.110;19.838;2022-10-16T10:14:23;98674.25;;;16.34;57.39
70921;BME280;58572;48.110;19.838;2022-10-16T10:16:51;98670.72;;;16.93;56.96
70921;BME280;58572;48.110;19.838;2022-10-16T10:19:22;98676.91;;;16.39;53.48
70921;BME280;58572;48.110;19.838;2022-10-16T10:21:50;98676.09;;;16.38;53.26
70921;BME280;58572;48.110;19.838;2022-10-16T10:24:19;98677.03;;;16.66;54.90
70921;BME280;58572;48.110;19.838;2022-10-16T10:26:54;98670.31;;;16.86;56.24
70921;BME280;58572;48.110;19.838;2022-10-16T10:29:31;98680.19;;;16.54;57.54
70921;BME280;58572;48.110;19.838;2022-10-16T10:32:12;98680.38;;;16.44;57.65
70921;BME280;58572;48.110;19.838;2022-10-16T10:35:14;98672.16;;;16.77;57.90
70921;BME280;58572;48.110;19.838;2022-10-16T10:38:02;98659.22;;;17.68;56.81
70921;BME280;58572;48.110;19.838;2022-10-16T10:40:40;98662.00;;;18.66;52.67
70921;BME280;58572;48.110;19.838;2022-10-16T10:43:17;98625.50;;;17.76;54.36
70921;BME280;58572;48.110;19.838;2022-10-16T10:45:52;98665.97;;;17.48;55.11
70921;BME280;58572;48.110;19.838;2022-10-16T10:48:44;98659.13;;;16.96;54.69
70921;BME280;58572;48.110;19.838;2022-10-16T10:51:20;98655.81;;;17.35;55.26
70921;BME280;58572;48.110;19.838;2022-10-16T10:53:58;98569.47;;;16.32;53.21
70921;BME280;58572;48.110;19.838;2022-10-16T10:56:42;98648.72;;;17.20;52.59
70921;BME280;58572;48.110;19.838;2022-10-16T10:59:32;98649.09;;;17.28;55.23
70921;BME280;58572;48.110;19.838;2022-10-16T11:02:10;98646.06;;;17.29;54.30
70921;BME280;58572;48.110;19.838;2022-10-16T11:05:08;98644.44;;;17.14;52.71
70921;BME280;58572;48.110;19.838;2022-10-16T11:07:48;98637.41;;;17.58;53.12
70921;BME280;58572;48.110;19.838;2022-10-16T11:10:20;98634.81;;;18.42;54.59
70921;BME280;58572;48.110;19.838;2022-10-16T11:12:52;98582.63;;;17.62;54.30
70921;BME280;58572;48.110;19.838;2022-10-16T11:15:25;98631.00;;;18.61;52.08
70921;BME280;58572;48.110;19.838;2022-10-16T11:17:59;98546.47;;;17.91;51.39
70921;BME280;58572;48.110;19.838;2022-10-16T11:20:32;98647.00;;;17.74;51.48
70921;BME280;58572;48.110;19.838;2022-10-16T11:23:08;98632.06;;;17.89;52.57
70921;BME280;58572;48.110;19.838;2022-10-16T11:25:40;98623.72;;;18.03;52.62
70921;BME280;58572;48.110;19.838;2022-10-16T11:28:12;98633.94;;;17.80;51.36
70921;BME280;58572;48.110;19.838;2022-10-16T11:30:44;98628.09;;;18.04;53.30
70921;BME280;58572;48.110;19.838;2022-10-16T11:33:32;98626.38;;;17.85;53.92
70921;BME280;58572;48.110;19.838;2022-10-16T11:36:08;98633.53;;;17.59;49.76
70921;BME280;58572;48.110;19.838;2022-10-16T11:38:44;98625.41;;;17.68;51.97
70921;BME280;58572;48.110;19.838;2022-10-16T11:41:21;98627.25;;;17.72;50.61
70921;BME280;58572;48.110;19.838;2022-10-16T11:44:02;98632.69;;;17.36;50.11
70921;BME280;58572;48.110;19.838;2022-10-16T11:46:35;98555.97;;;16.90;51.56
70921;BME280;58572;48.110;19.838;2022-10-16T11:49:10;98628.00;;;17.37;52.86
70921;BME280;58572;48.110;19.838;2022-10-16T11:51:43;98633.81;;;17.35;52.07
70921;BME280;58572;48.110;19.838;2022-10-16T11:54:20;98623.59;;;17.49;51.39
70921;BME280;58572;48.110;19.838;2022-10-16T11:56:54;98617.97;;;17.54;52.50
70921;BME280;58572;48.110;19.838;2022-10-16T11:59:27;98615.63;;;17.62;50.38
70921;BME280;58572;48.110;19.838;2022-10-16T12:02:15;98600.09;;;17.07;48.28
70921;BME280;58572;48.110;19.838;2022-10-16T12:04:53;98614.28;;;17.37;53.14
70921;BME280;58572;48.110;19.838;2022-10-16T12:07:30;98606.06;;;17.59;50.99
70921;BME280;58572;48.110;19.838;2022-10-16T12:10:18;98613.03;;;17.43;53.04
70921;BME280;58572;48.110;19.838;2022-10-16T12:12:46;98621.34;;;17.51;54.19
70921;BME280;58572;48.110;19.838;2022-10-16T12:15:22;98617.97;;;16.64;58.19
70921;BME280;58572;48.110;19.838;2022-10-16T12:17:50;98623.00;;;16.89;57.17
70921;BME280;58572;48.110;19.838;2022-10-16T12:20:27;98626.44;;;17.08;54.58
70921;BME280;58572;48.110;19.838;2022-10-16T12:22:58;98632.81;;;17.31;52.89
70921;BME280;58572;48.110;19.838;2022-10-16T12:25:29;98519.38;;;16.81;53.10
70921;BME280;58572;48.110;19.838;2022-10-16T12:27:59;98619.66;;;18.23;53.88
70921;BME280;58572;48.110;19.838;2022-10-16T12:30:29;98623.97;;;18.15;51.22
70921;BME280;58572;48.110;19.838;2022-10-16T12:32:58;98634.50;;;16.91;60.02
70921;BME280;58572;48.110;19.838;2022-10-16T12:35:29;98631.25;;;16.89;56.78
70921;BME280;58572;48.110;19.838;2022-10-16T12:38:06;98625.91;;;17.20;57.46
70921;BME280;58572;48.110;19.838;2022-10-16T12:40:37;98631.22;;;17.16;54.55
70921;BME280;58572;48.110;19.838;2022-10-16T12:43:13;98634.16;;;17.56;51.30
70921;BME280;58572;48.110;19.838;2022-10-16T12:45:59;98634.16;;;17.56;49.58
70921;BME280;58572;48.110;19.838;2022-10-16T12:48:26;98486.97;;;17.05;51.94
70921;BME280;58572;48.110;19.838;2022-10-16T12:50:53;98637.31;;;17.99;53.28
70921;BME280;58572;48.110;19.838;2022-10-16T12:53:23;98631.47;;;18.23;51.04
70921;BME280;58572;48.110;19.838;2022-10-16T12:56:11;98639.50;;;18.11;49.43
70921;BME280;58572;48.110;19.838;2022-10-16T12:58:57;98625.00;;;17.97;47.71
70921;BME280;58572;48.110;19.838;2022-10-16T13:01:39;98638.19;;;17.86;53.62
70921;BME280;58572;48.110;19.838;2022-10-16T13:04:47;98648.38;;;17.85;57.04
70921;BME280;58572;48.110;19.838;2022-10-16T13:07:31;98650.16;;;17.04;54.68
70921;BME280;58572;48.110;19.838;2022-10-16T13:10:11;98654.81;;;17.17;52.27
70921;BME280;58572;48.110;19.838;2022-10-16T13:13:00;98649.50;;;17.35;55.98